sensor_id;sensor_type;location;lat;lon;timestamp;P1;durP1;ratioP1;P2;durP2;ratioP2
37445;SDS011;23307;51.136;14.942;2023-02-18T00:00:23;4.18;;;2.70;;
37445;SDS011;23307;51.136;14.942;2023-02-18T00:02:49;5.20;;;3.10;;
37445;SDS011;23307;51.136;14.942;2023-02-18T00:05:14;4.43;;;2.80;;
37445;SDS011;23307;51.136;14.942;2023-02-18T00:07:40;3.08;;;2.45;;
37445;SDS011;23307;51.136;14.942;2023-02-18T00:10:07;6.75;;;2.30;;
37445;SDS011;23307;51.136;14.942;2023-02-18T00:12:36;6.28;;;2.17;;
37445;SDS011;23307;51.136;14.942;2023-02-18T00:15:02;5.25;;;2.00;;
37445;SDS011;23307;51.136;14.942;2023-02-18T00:17:28;3.03;;;1.60;;
37445;SDS011;23307;51.136;14.942;2023-02-18T00:19:54;3.35;;;1.48;;
37445;SDS011;23307;51.136;14.942;2023-02-18T00:22:21;1.70;;;1.30;;
37445;SDS011;23307;51.136;14.942;2023-02-18T00:24:47;4.47;;;1.60;;
37445;SDS011;23307;51.136;14.942;2023-02-18T00:27:12;2.53;;;1.20;;
37445;SDS011;23307;51.136;14.942;2023-02-18T00:29:38;1.27;;;1.05;;
37445;SDS011;23307;51.136;14.942;2023-02-18T00:32:03;2.13;;;0.90;;
37445;SDS011;23307;51.136;14.942;2023-02-18T00:34:29;3.00;;;1.00;;
37445;SDS011;23307;51.136;14.942;2023-02-18T00:36:54;1.57;;;0.80;;
37445;SDS011;23307;51.136;14.942;2023-02-18T00:39:20;0.90;;;0.63;;
37445;SDS011;23307;51.136;14.942;2023-02-18T00:41:45;2.57;;;0.90;;
37445;SDS011;23307;51.136;14.942;2023-02-18T00:44:11;3.40;;;0.97;;
37445;SDS011;23307;51.136;14.942;2023-02-18T00:46:38;4.32;;;1.00;;
37445;SDS011;23307;51.136;14.942;2023-02-18T00:49:04;3.63;;;1.40;;
37445;SDS011;23307;51.136;14.942;2023-02-18T00:51:29;4.97;;;0.80;;
37445;SDS011;23307;51.136;14.942;2023-02-18T00:53:55;2.40;;;0.80;;
37445;SDS011;23307;51.136;14.942;2023-02-18T00:56:21;1.30;;;0.97;;
37445;SDS011;23307;51.136;14.942;2023-02-18T00:58:46;5.37;;;1.20;;
37445;SDS011;23307;51.136;14.942;2023-02-18T01:01:12;5.90;;;1.23;;
37445;SDS011;23307;51.136;14.942;2023-02-18T01:03:38;2.77;;;0.90;;
37445;SDS011;23307;51.136;14.942;2023-02-18T01:06:06;2.10;;;0.87;;
37445;SDS011;23307;51.136;14.942;2023-02-18T01:08:33;3.47;;;0.77;;
37445;SDS011;23307;51.136;14.942;2023-02-18T01:10:59;2.63;;;0.90;;
37445;SDS011;23307;51.136;14.942;2023-02-18T01:13:27;2.90;;;0.73;;
37445;SDS011;23307;51.136;14.942;2023-02-18T01:15:53;1.83;;;0.70;;
37445;SDS011;23307;51.136;14.942;2023-02-18T01:18:19;1.00;;;0.60;;
37445;SDS011;23307;51.136;14.942;2023-02-18T01:20:45;3.80;;;0.80;;
37445;SDS011;23307;51.136;14.942;2023-02-18T01:23:11;4.57;;;0.80;;
37445;SDS011;23307;51.136;14.942;2023-02-18T01:25:38;1.63;;;0.70;;
37445;SDS011;23307;51.136;14.942;2023-02-18T01:28:04;1.37;;;0.90;;
37445;SDS011;23307;51.136;14.942;2023-02-18T01:30:31;1.77;;;0.97;;
37445;SDS011;23307;51.136;14.942;2023-02-18T01:32:57;2.67;;;0.60;;
37445;SDS011;23307;51.136;14.942;2023-02-18T01:35:23;2.90;;;1.07;;
37445;SDS011;23307;51.136;14.942;2023-02-18T01:37:49;1.83;;;0.67;;
37445;SDS011;23307;51.136;14.942;2023-02-18T01:40:17;1.10;;;0.70;;
37445;SDS011;23307;51.136;14.942;2023-02-18T01:42:44;2.33;;;1.00;;
37445;SDS011;23307;51.136;14.942;2023-02-18T01:48:15;1.53;;;0.80;;
37445;SDS011;23307;51.136;14.942;2023-02-18T01:50:46;1.33;;;0.63;;
37445;SDS011;23307;51.136;14.942;2023-02-18T01:53:15;2.37;;;0.70;;
37445;SDS011;23307;51.136;14.942;2023-02-18T01:55:45;2.83;;;0.90;;
37445;SDS011;23307;51.136;14.942;2023-02-18T01:58:13;1.70;;;0.50;;
37445;SDS011;23307;51.136;14.942;2023-02-18T02:00:39;1.97;;;0.80;;
37445;SDS011;23307;51.136;14.942;2023-02-18T02:03:05;2.03;;;0.73;;
37445;SDS011;23307;51.136;14.942;2023-02-18T02:05:31;1.40;;;0.77;;
37445;SDS011;23307;51.136;14.942;2023-02-18T02:07:58;3.10;;;0.70;;
37445;SDS011;23307;51.136;14.942;2023-02-18T02:10:26;2.03;;;0.70;;
37445;SDS011;23307;51.136;14.942;2023-02-18T02:13:06;1.57;;;0.70;;
37445;SDS011;23307;51.136;14.942;2023-02-18T02:15:57;1.53;;;0.60;;
37445;SDS011;23307;51.136;14.942;2023-02-18T02:24:31;1.93;;;0.70;;
37445;SDS011;23307;51.136;14.942;2023-02-18T02:27:25;2.07;;;0.90;;
37445;SDS011;23307;51.136;14.942;2023-02-18T02:35:24;2.17;;;0.90;;
37445;SDS011;23307;51.136;14.942;2023-02-18T02:37:59;4.70;;;1.03;;
37445;SDS011;23307;51.136;14.942;2023-02-18T02:46:17;0.53;;;0.53;;
37445;SDS011;23307;51.136;14.942;2023-02-18T02:48:57;1.63;;;0.70;;
37445;SDS011;23307;51.136;14.942;2023-02-18T02:51:45;2.03;;;0.70;;
37445;SDS011;23307;51.136;14.942;2023-02-18T02:56:47;2.20;;;0.70;;
37445;SDS011;23307;51.136;14.942;2023-02-18T02:59:15;0.77;;;0.60;;
37445;SDS011;23307;51.136;14.942;2023-02-18T03:02:11;4.50;;;0.80;;
37445;SDS011;23307;51.136;14.942;2023-02-18T03:05:07;1.80;;;0.97;;
37445;SDS011;23307;51.136;14.942;2023-02-18T03:07:48;0.50;;;0.50;;
37445;SDS011;23307;51.136;14.942;2023-02-18T03:10:45;2.07;;;0.90;;
37445;SDS011;23307;51.136;14.942;2023-02-18T03:13:16;4.27;;;0.80;;
37445;SDS011;23307;51.136;14.942;2023-02-18T03:15:54;2.07;;;0.70;;
37445;SDS011;23307;51.136;14.942;2023-02-18T03:23:52;2.00;;;0.60;;
37445;SDS011;23307;51.136;14.942;2023-02-18T03:26:39;1.47;;;0.63;;
37445;SDS011;23307;51.136;14.942;2023-02-18T03:29:10;2.03;;;0.83;;
37445;SDS011;23307;51.136;14.942;2023-02-18T03:31:39;1.97;;;0.60;;
37445;SDS011;23307;51.136;14.942;2023-02-18T03:34:10;1.93;;;0.60;;
37445;SDS011;23307;51.136;14.942;2023-02-18T03:36:42;1.37;;;0.70;;
37445;SDS011;23307;51.136;14.942;2023-02-18T03:39:15;1.63;;;0.60;;
37445;SDS011;23307;51.136;14.942;2023-02-18T03:41:42;3.30;;;0.67;;
37445;SDS011;23307;51.136;14.942;2023-02-18T03:44:08;1.93;;;0.90;;
37445;SDS011;23307;51.136;14.942;2023-02-18T03:46:35;2.10;;;0.80;;
37445;SDS011;23307;51.136;14.942;2023-02-18T03:49:03;3.63;;;0.60;;
37445;SDS011;23307;51.136;14.942;2023-02-18T03:51:28;1.97;;;0.70;;
37445;SDS011;23307;51.136;14.942;2023-02-18T03:53:54;1.20;;;0.70;;
37445;SDS011;23307;51.136;14.942;2023-02-18T03:56:19;1.83;;;0.73;;
37445;SDS011;23307;51.136;14.942;2023-02-18T03:58:45;3.27;;;0.80;;
37445;SDS011;23307;51.136;14.942;2023-02-18T04:01:11;1.83;;;0.50;;
37445;SDS011;23307;51.136;14.942;2023-02-18T04:03:37;2.43;;;0.80;;
37445;SDS011;23307;51.136;14.942;2023-02-18T04:06:03;4.32;;;0.80;;
37445;SDS011;23307;51.136;14.942;2023-02-18T04:08:28;1.70;;;0.77;;
37445;SDS011;23307;51.136;14.942;2023-02-18T04:10:54;3.10;;;0.93;;
37445;SDS011;23307;51.136;14.942;2023-02-18T04:13:20;1.60;;;0.67;;
37445;SDS011;23307;51.136;14.942;2023-02-18T04:15:47;1.00;;;0.70;;
37445;SDS011;23307;51.136;14.942;2023-02-18T04:18:14;2.00;;;0.67;;
37445;SDS011;23307;51.136;14.942;2023-02-18T04:20:40;3.13;;;0.80;;
37445;SDS011;23307;51.136;14.942;2023-02-18T04:23:05;1.43;;;0.60;;
37445;SDS011;23307;51.136;14.942;2023-02-18T04:25:31;3.63;;;0.80;;
37445;SDS011;23307;51.136;14.942;2023-02-18T04:27:57;3.07;;;0.70;;
37445;SDS011;23307;51.136;14.942;2023-02-18T04:30:23;1.37;;;0.60;;
37445;SDS011;23307;51.136;14.942;2023-02-18T04:32:48;2.03;;;0.70;;
37445;SDS011;23307;51.136;14.942;2023-02-18T04:35:14;2.70;;;0.80;;
37445;SDS011;23307;51.136;14.942;2023-02-18T04:37:39;2.60;;;1.13;;
37445;SDS011;23307;51.136;14.942;2023-02-18T04:40:05;3.10;;;0.80;;
37445;SDS011;23307;51.136;14.942;2023-02-18T04:42:31;2.03;;;1.13;;
37445;SDS011;23307;51.136;14.942;2023-02-18T04:44:56;1.17;;;0.77;;
37445;SDS011;23307;51.136;14.942;2023-02-18T04:47:22;1.85;;;0.90;;
37445;SDS011;23307;51.136;14.942;2023-02-18T04:49:48;2.47;;;0.70;;
37445;SDS011;23307;51.136;14.942;2023-02-18T04:52:13;2.20;;;0.90;;
37445;SDS011;23307;51.136;14.942;2023-02-18T04:54:39;1.03;;;0.80;;
37445;SDS011;23307;51.136;14.942;2023-02-18T04:57:04;2.67;;;0.77;;
37445;SDS011;23307;51.136;14.942;2023-02-18T04:59:30;1.50;;;0.97;;
37445;SDS011;23307;51.136;14.942;2023-02-18T05:01:55;3.03;;;1.10;;
37445;SDS011;23307;51.136;14.942;2023-02-18T05:04:21;1.80;;;0.83;;
37445;SDS011;23307;51.136;14.942;2023-02-18T05:06:46;1.57;;;0.90;;
37445;SDS011;23307;51.136;14.942;2023-02-18T05:09:12;4.63;;;0.87;;
37445;SDS011;23307;51.136;14.942;2023-02-18T05:11:38;2.20;;;1.00;;
37445;SDS011;23307;51.136;14.942;2023-02-18T05:14:04;2.20;;;0.90;;
37445;SDS011;23307;51.136;14.942;2023-02-18T05:16:29;2.90;;;0.90;;
37445;SDS011;23307;51.136;14.942;2023-02-18T05:18:55;2.23;;;1.00;;
37445;SDS011;23307;51.136;14.942;2023-02-18T05:21:21;1.73;;;0.97;;
37445;SDS011;23307;51.136;14.942;2023-02-18T05:23:46;2.67;;;0.93;;
37445;SDS011;23307;51.136;14.942;2023-02-18T05:26:12;3.63;;;1.00;;
37445;SDS011;23307;51.136;14.942;2023-02-18T05:28:37;2.30;;;1.00;;
37445;SDS011;23307;51.136;14.942;2023-02-18T05:31:03;3.77;;;1.13;;
37445;SDS011;23307;51.136;14.942;2023-02-18T05:33:28;3.93;;;1.20;;
37445;SDS011;23307;51.136;14.942;2023-02-18T05:35:54;3.73;;;1.13;;
37445;SDS011;23307;51.136;14.942;2023-02-18T05:38:19;4.50;;;1.00;;
37445;SDS011;23307;51.136;14.942;2023-02-18T05:40:45;2.47;;;1.07;;
37445;SDS011;23307;51.136;14.942;2023-02-18T05:43:11;2.67;;;1.00;;
37445;SDS011;23307;51.136;14.942;2023-02-18T05:45:37;3.13;;;0.77;;
37445;SDS011;23307;51.136;14.942;2023-02-18T05:48:02;1.87;;;1.03;;
37445;SDS011;23307;51.136;14.942;2023-02-18T05:50:28;3.43;;;1.00;;
37445;SDS011;23307;51.136;14.942;2023-02-18T05:52:53;3.97;;;1.10;;
37445;SDS011;23307;51.136;14.942;2023-02-18T05:55:19;2.25;;;1.23;;
37445;SDS011;23307;51.136;14.942;2023-02-18T05:57:44;5.03;;;1.33;;
37445;SDS011;23307;51.136;14.942;2023-02-18T06:00:10;4.40;;;1.42;;
37445;SDS011;23307;51.136;14.942;2023-02-18T06:02:36;4.67;;;1.13;;
37445;SDS011;23307;51.136;14.942;2023-02-18T06:05:02;3.00;;;1.10;;
37445;SDS011;23307;51.136;14.942;2023-02-18T06:07:28;3.92;;;0.95;;
37445;SDS011;23307;51.136;14.942;2023-02-18T06:09:54;3.07;;;1.03;;
37445;SDS011;23307;51.136;14.942;2023-02-18T06:12:19;5.40;;;1.20;;
37445;SDS011;23307;51.136;14.942;2023-02-18T06:14:45;4.67;;;1.20;;
37445;SDS011;23307;51.136;14.942;2023-02-18T06:17:11;4.07;;;1.17;;
37445;SDS011;23307;51.136;14.942;2023-02-18T06:19:37;3.40;;;1.08;;
37445;SDS011;23307;51.136;14.942;2023-02-18T06:22:03;4.53;;;1.30;;
37445;SDS011;23307;51.136;14.942;2023-02-18T06:24:29;4.85;;;1.27;;
37445;SDS011;23307;51.136;14.942;2023-02-18T06:26:55;3.25;;;1.20;;
37445;SDS011;23307;51.136;14.942;2023-02-18T06:29:20;3.70;;;0.98;;
37445;SDS011;23307;51.136;14.942;2023-02-18T06:31:46;4.57;;;1.10;;
37445;SDS011;23307;51.136;14.942;2023-02-18T06:34:11;5.67;;;1.10;;
37445;SDS011;23307;51.136;14.942;2023-02-18T06:36:38;4.07;;;1.20;;
37445;SDS011;23307;51.136;14.942;2023-02-18T06:39:04;7.72;;;1.38;;
37445;SDS011;23307;51.136;14.942;2023-02-18T06:41:30;3.83;;;1.23;;
37445;SDS011;23307;51.136;14.942;2023-02-18T06:43:55;3.40;;;0.97;;
37445;SDS011;23307;51.136;14.942;2023-02-18T06:46:21;3.08;;;1.00;;
37445;SDS011;23307;51.136;14.942;2023-02-18T06:48:46;2.80;;;1.17;;
37445;SDS011;23307;51.136;14.942;2023-02-18T06:51:12;5.53;;;1.20;;
37445;SDS011;23307;51.136;14.942;2023-02-18T06:53:39;4.30;;;1.40;;
37445;SDS011;23307;51.136;14.942;2023-02-18T06:56:05;4.20;;;1.37;;
37445;SDS011;23307;51.136;14.942;2023-02-18T06:58:31;3.80;;;1.17;;
37445;SDS011;23307;51.136;14.942;2023-02-18T07:00:56;5.23;;;1.73;;
37445;SDS011;23307;51.136;14.942;2023-02-18T07:03:22;6.00;;;1.73;;
37445;SDS011;23307;51.136;14.942;2023-02-18T07:05:47;7.65;;;2.10;;
37445;SDS011;23307;51.136;14.942;2023-02-18T07:08:13;4.15;;;1.40;;
37445;SDS011;23307;51.136;14.942;2023-02-18T07:10:38;5.32;;;1.70;;
37445;SDS011;23307;51.136;14.942;2023-02-18T07:13:04;5.35;;;1.48;;
37445;SDS011;23307;51.136;14.942;2023-02-18T07:15:30;5.28;;;1.40;;
37445;SDS011;23307;51.136;14.942;2023-02-18T07:17:55;5.97;;;1.88;;
37445;SDS011;23307;51.136;14.942;2023-02-18T07:20:21;5.15;;;1.50;;
37445;SDS011;23307;51.136;14.942;2023-02-18T07:22:47;3.75;;;1.48;;
37445;SDS011;23307;51.136;14.942;2023-02-18T07:25:13;4.28;;;1.30;;
37445;SDS011;23307;51.136;14.942;2023-02-18T07:27:39;4.75;;;1.38;;
37445;SDS011;23307;51.136;14.942;2023-02-18T07:30:05;5.93;;;1.33;;
37445;SDS011;23307;51.136;14.942;2023-02-18T07:32:31;7.22;;;1.40;;
37445;SDS011;23307;51.136;14.942;2023-02-18T07:34:57;6.40;;;1.65;;
37445;SDS011;23307;51.136;14.942;2023-02-18T07:37:22;4.65;;;1.40;;
37445;SDS011;23307;51.136;14.942;2023-02-18T07:39:48;6.10;;;2.00;;
37445;SDS011;23307;51.136;14.942;2023-02-18T07:42:13;5.32;;;2.08;;
37445;SDS011;23307;51.136;14.942;2023-02-18T07:44:39;9.02;;;2.20;;
37445;SDS011;23307;51.136;14.942;2023-02-18T07:47:06;4.47;;;1.70;;
37445;SDS011;23307;51.136;14.942;2023-02-18T07:49:32;7.32;;;2.05;;
37445;SDS011;23307;51.136;14.942;2023-02-18T07:51:58;4.95;;;2.00;;
37445;SDS011;23307;51.136;14.942;2023-02-18T07:54:25;5.47;;;1.77;;
37445;SDS011;23307;51.136;14.942;2023-02-18T07:56:50;5.72;;;2.08;;
37445;SDS011;23307;51.136;14.942;2023-02-18T07:59:17;7.97;;;2.40;;
37445;SDS011;23307;51.136;14.942;2023-02-18T08:01:42;7.43;;;1.90;;
37445;SDS011;23307;51.136;14.942;2023-02-18T08:04:08;7.03;;;2.22;;
37445;SDS011;23307;51.136;14.942;2023-02-18T08:06:38;4.97;;;2.08;;
37445;SDS011;23307;51.136;14.942;2023-02-18T08:09:05;7.57;;;2.25;;
37445;SDS011;23307;51.136;14.942;2023-02-18T08:11:31;6.87;;;2.17;;
37445;SDS011;23307;51.136;14.942;2023-02-18T08:13:57;7.57;;;1.92;;
37445;SDS011;23307;51.136;14.942;2023-02-18T08:16:23;5.78;;;2.20;;
37445;SDS011;23307;51.136;14.942;2023-02-18T08:18:49;5.13;;;1.70;;
37445;SDS011;23307;51.136;14.942;2023-02-18T08:21:16;7.10;;;2.10;;
37445;SDS011;23307;51.136;14.942;2023-02-18T08:23:42;6.20;;;2.15;;
37445;SDS011;23307;51.136;14.942;2023-02-18T08:26:08;3.83;;;1.90;;
37445;SDS011;23307;51.136;14.942;2023-02-18T08:28:34;6.45;;;2.35;;
37445;SDS011;23307;51.136;14.942;2023-02-18T08:31:00;4.70;;;2.10;;
37445;SDS011;23307;51.136;14.942;2023-02-18T08:33:26;5.15;;;2.30;;
37445;SDS011;23307;51.136;14.942;2023-02-18T08:35:53;10.50;;;3.03;;
37445;SDS011;23307;51.136;14.942;2023-02-18T08:38:19;7.07;;;2.30;;
37445;SDS011;23307;51.136;14.942;2023-02-18T08:40:46;3.45;;;2.33;;
37445;SDS011;23307;51.136;14.942;2023-02-18T08:43:12;4.35;;;2.10;;
37445;SDS011;23307;51.136;14.942;2023-02-18T08:45:38;8.85;;;5.10;;
37445;SDS011;23307;51.136;14.942;2023-02-18T08:48:05;8.48;;;5.07;;
37445;SDS011;23307;51.136;14.942;2023-02-18T08:50:32;10.52;;;4.85;;
37445;SDS011;23307;51.136;14.942;2023-02-18T08:52:58;10.43;;;5.18;;
37445;SDS011;23307;51.136;14.942;2023-02-18T08:55:31;8.02;;;3.70;;
37445;SDS011;23307;51.136;14.942;2023-02-18T08:57:57;7.50;;;3.25;;
37445;SDS011;23307;51.136;14.942;2023-02-18T09:00:23;5.95;;;3.10;;
37445;SDS011;23307;51.136;14.942;2023-02-18T09:02:49;9.18;;;3.25;;
37445;SDS011;23307;51.136;14.942;2023-02-18T09:05:14;7.15;;;2.75;;
37445;SDS011;23307;51.136;14.942;2023-02-18T09:07:40;7.50;;;2.90;;
37445;SDS011;23307;51.136;14.942;2023-02-18T09:10:06;8.18;;;2.40;;
37445;SDS011;23307;51.136;14.942;2023-02-18T09:12:32;6.07;;;2.47;;
37445;SDS011;23307;51.136;14.942;2023-02-18T09:14:58;7.00;;;2.75;;
37445;SDS011;23307;51.136;14.942;2023-02-18T09:17:24;6.32;;;2.65;;
37445;SDS011;23307;51.136;14.942;2023-02-18T09:19:50;4.40;;;2.30;;
37445;SDS011;23307;51.136;14.942;2023-02-18T09:22:16;5.07;;;2.47;;
37445;SDS011;23307;51.136;14.942;2023-02-18T09:24:41;7.20;;;4.10;;
37445;SDS011;23307;51.136;14.942;2023-02-18T09:27:07;4.63;;;3.08;;
37445;SDS011;23307;51.136;14.942;2023-02-18T09:29:33;6.32;;;3.33;;
37445;SDS011;23307;51.136;14.942;2023-02-18T09:32:02;5.20;;;2.38;;
37445;SDS011;23307;51.136;14.942;2023-02-18T09:34:28;5.13;;;2.65;;
37445;SDS011;23307;51.136;14.942;2023-02-18T09:36:54;6.32;;;2.85;;
37445;SDS011;23307;51.136;14.942;2023-02-18T09:39:20;5.57;;;2.70;;
37445;SDS011;23307;51.136;14.942;2023-02-18T09:41:46;5.60;;;2.88;;
37445;SDS011;23307;51.136;14.942;2023-02-18T09:44:26;5.65;;;2.63;;
37445;SDS011;23307;51.136;14.942;2023-02-18T09:47:05;5.28;;;3.20;;
37445;SDS011;23307;51.136;14.942;2023-02-18T09:49:38;4.35;;;2.78;;
37445;SDS011;23307;51.136;14.942;2023-02-18T09:52:12;5.95;;;3.05;;
37445;SDS011;23307;51.136;14.942;2023-02-18T09:54:41;5.32;;;3.45;;
37445;SDS011;23307;51.136;14.942;2023-02-18T09:57:12;4.40;;;3.13;;
37445;SDS011;23307;51.136;14.942;2023-02-18T09:59:46;5.90;;;3.47;;
37445;SDS011;23307;51.136;14.942;2023-02-18T10:02:18;6.25;;;3.83;;
37445;SDS011;23307;51.136;14.942;2023-02-18T10:04:44;5.10;;;3.47;;
37445;SDS011;23307;51.136;14.942;2023-02-18T10:07:18;5.32;;;3.40;;
37445;SDS011;23307;51.136;14.942;2023-02-18T10:09:50;6.05;;;3.10;;
37445;SDS011;23307;51.136;14.942;2023-02-18T10:12:20;4.22;;;2.70;;
37445;SDS011;23307;51.136;14.942;2023-02-18T10:15:09;5.55;;;3.33;;
37445;SDS011;23307;51.136;14.942;2023-02-18T10:17:40;4.03;;;2.67;;
37445;SDS011;23307;51.136;14.942;2023-02-18T10:20:06;4.82;;;2.50;;
37445;SDS011;23307;51.136;14.942;2023-02-18T10:22:32;5.55;;;3.03;;
37445;SDS011;23307;51.136;14.942;2023-02-18T10:24:58;4.93;;;3.35;;
37445;SDS011;23307;51.136;14.942;2023-02-18T10:27:30;4.72;;;2.97;;
37445;SDS011;23307;51.136;14.942;2023-02-18T10:30:04;3.60;;;2.45;;
37445;SDS011;23307;51.136;14.942;2023-02-18T10:32:45;4.35;;;3.20;;
37445;SDS011;23307;51.136;14.942;2023-02-18T10:35:21;4.47;;;3.38;;
37445;SDS011;23307;51.136;14.942;2023-02-18T10:40:43;5.00;;;3.42;;
37445;SDS011;23307;51.136;14.942;2023-02-18T10:45:59;8.00;;;4.40;;
37445;SDS011;23307;51.136;14.942;2023-02-18T10:51:25;6.00;;;4.50;;
37445;SDS011;23307;51.136;14.942;2023-02-18T10:53:54;5.75;;;4.43;;
37445;SDS011;23307;51.136;14.942;2023-02-18T10:56:31;4.88;;;4.18;;
37445;SDS011;23307;51.136;14.942;2023-02-18T10:59:12;5.25;;;4.60;;
37445;SDS011;23307;51.136;14.942;2023-02-18T11:01:43;6.15;;;4.55;;
37445;SDS011;23307;51.136;14.942;2023-02-18T11:04:17;6.60;;;5.03;;
37445;SDS011;23307;51.136;14.942;2023-02-18T11:06:47;5.22;;;4.72;;
37445;SDS011;23307;51.136;14.942;2023-02-18T11:09:33;5.57;;;5.05;;
37445;SDS011;23307;51.136;14.942;2023-02-18T11:12:13;6.55;;;4.88;;
37445;SDS011;23307;51.136;14.942;2023-02-18T11:14:47;5.22;;;4.45;;
37445;SDS011;23307;51.136;14.942;2023-02-18T11:17:15;5.75;;;4.60;;
37445;SDS011;23307;51.136;14.942;2023-02-18T11:19:50;6.00;;;4.85;;
37445;SDS011;23307;51.136;14.942;2023-02-18T11:22:31;6.85;;;4.60;;
37445;SDS011;23307;51.136;14.942;2023-02-18T11:25:00;7.60;;;4.13;;
37445;SDS011;23307;51.136;14.942;2023-02-18T11:27:33;5.40;;;4.30;;
37445;SDS011;23307;51.136;14.942;2023-02-18T11:30:05;4.97;;;4.50;;
37445;SDS011;23307;51.136;14.942;2023-02-18T11:32:41;5.50;;;3.70;;
37445;SDS011;23307;51.136;14.942;2023-02-18T11:35:15;5.13;;;3.92;;
37445;SDS011;23307;51.136;14.942;2023-02-18T11:37:43;3.83;;;3.42;;
37445;SDS011;23307;51.136;14.942;2023-02-18T11:40:18;4.05;;;3.28;;
37445;SDS011;23307;51.136;14.942;2023-02-18T11:42:49;3.47;;;2.80;;
37445;SDS011;23307;51.136;14.942;2023-02-18T11:45:29;3.67;;;3.10;;
37445;SDS011;23307;51.136;14.942;2023-02-18T11:48:01;3.28;;;2.67;;
37445;SDS011;23307;51.136;14.942;2023-02-18T11:50:32;3.38;;;3.08;;
37445;SDS011;23307;51.136;14.942;2023-02-18T11:52:58;3.20;;;2.90;;
37445;SDS011;23307;51.136;14.942;2023-02-18T11:55:27;5.20;;;3.40;;
37445;SDS011;23307;51.136;14.942;2023-02-18T11:57:58;3.53;;;3.22;;
37445;SDS011;23307;51.136;14.942;2023-02-18T12:06:33;3.17;;;2.63;;
37445;SDS011;23307;51.136;14.942;2023-02-18T12:09:05;3.58;;;2.67;;
37445;SDS011;23307;51.136;14.942;2023-02-18T12:11:53;3.38;;;2.53;;
37445;SDS011;23307;51.136;14.942;2023-02-18T12:14:41;2.70;;;2.45;;
37445;SDS011;23307;51.136;14.942;2023-02-18T12:22:55;2.30;;;2.10;;
37445;SDS011;23307;51.136;14.942;2023-02-18T12:25:51;2.20;;;2.00;;
37445;SDS011;23307;51.136;14.942;2023-02-18T12:28:30;2.05;;;1.27;;
37445;SDS011;23307;51.136;14.942;2023-02-18T12:31:25;2.33;;;1.30;;
37445;SDS011;23307;51.136;14.942;2023-02-18T12:36:54;1.17;;;1.08;;
37445;SDS011;23307;51.136;14.942;2023-02-18T12:39:36;1.30;;;1.20;;
37445;SDS011;23307;51.136;14.942;2023-02-18T12:42:36;1.80;;;1.40;;
37445;SDS011;23307;51.136;14.942;2023-02-18T12:51:12;1.00;;;0.90;;
37445;SDS011;23307;51.136;14.942;2023-02-18T12:59:10;1.25;;;0.80;;
37445;SDS011;23307;51.136;14.942;2023-02-18T13:07:51;1.00;;;0.70;;
37445;SDS011;23307;51.136;14.942;2023-02-18T13:10:33;0.63;;;0.60;;
37445;SDS011;23307;51.136;14.942;2023-02-18T13:13:17;1.65;;;0.70;;
37445;SDS011;23307;51.136;14.942;2023-02-18T13:21:02;0.80;;;0.80;;
37445;SDS011;23307;51.136;14.942;2023-02-18T13:23:34;0.70;;;0.70;;
37445;SDS011;23307;51.136;14.942;2023-02-18T13:26:04;0.63;;;0.63;;
37445;SDS011;23307;51.136;14.942;2023-02-18T13:31:12;0.95;;;0.60;;
37445;SDS011;23307;51.136;14.942;2023-02-18T13:33:57;0.77;;;0.60;;
37445;SDS011;23307;51.136;14.942;2023-02-18T13:39:31;0.70;;;0.52;;
37445;SDS011;23307;51.136;14.942;2023-02-18T13:42:39;0.60;;;0.60;;
37445;SDS011;23307;51.136;14.942;2023-02-18T13:50:15;0.80;;;0.80;;
37445;SDS011;23307;51.136;14.942;2023-02-18T13:52:50;1.13;;;0.90;;
37445;SDS011;23307;51.136;14.942;2023-02-18T13:55:25;3.45;;;0.88;;
37445;SDS011;23307;51.136;14.942;2023-02-18T13:57:59;0.80;;;0.80;;
37445;SDS011;23307;51.136;14.942;2023-02-18T14:00:33;0.75;;;0.75;;
37445;SDS011;23307;51.136;14.942;2023-02-18T14:03:01;0.70;;;0.70;;
37445;SDS011;23307;51.136;14.942;2023-02-18T14:05:56;1.13;;;0.73;;
37445;SDS011;23307;51.136;14.942;2023-02-18T14:08:29;0.70;;;0.70;;
37445;SDS011;23307;51.136;14.942;2023-02-18T14:13:40;1.88;;;0.90;;
37445;SDS011;23307;51.136;14.942;2023-02-18T14:16:13;1.10;;;1.00;;
37445;SDS011;23307;51.136;14.942;2023-02-18T14:33:54;0.60;;;0.60;;
37445;SDS011;23307;51.136;14.942;2023-02-18T14:39:27;1.00;;;0.90;;
37445;SDS011;23307;51.136;14.942;2023-02-18T14:42:19;0.82;;;0.80;;
37445;SDS011;23307;51.136;14.942;2023-02-18T14:47:34;0.60;;;0.60;;
37445;SDS011;23307;51.136;14.942;2023-02-18T14:50:29;1.67;;;0.90;;
37445;SDS011;23307;51.136;14.942;2023-02-18T14:53:01;1.15;;;0.95;;
37445;SDS011;23307;51.136;14.942;2023-02-18T14:55:30;1.23;;;0.80;;
37445;SDS011;23307;51.136;14.942;2023-02-18T14:58:04;1.58;;;0.60;;
37445;SDS011;23307;51.136;14.942;2023-02-18T15:00:39;1.70;;;0.80;;
37445;SDS011;23307;51.136;14.942;2023-02-18T15:03:13;1.42;;;0.80;;
37445;SDS011;23307;51.136;14.942;2023-02-18T15:05:41;0.73;;;0.63;;
37445;SDS011;23307;51.136;14.942;2023-02-18T15:08:15;0.70;;;0.60;;
37445;SDS011;23307;51.136;14.942;2023-02-18T15:10:49;0.73;;;0.73;;
37445;SDS011;23307;51.136;14.942;2023-02-18T15:13:31;0.80;;;0.60;;
37445;SDS011;23307;51.136;14.942;2023-02-18T15:16:01;3.13;;;0.95;;
37445;SDS011;23307;51.136;14.942;2023-02-18T15:18:33;1.00;;;0.77;;
37445;SDS011;23307;51.136;14.942;2023-02-18T15:21:23;0.65;;;0.52;;
37445;SDS011;23307;51.136;14.942;2023-02-18T15:24:03;1.50;;;0.70;;
37445;SDS011;23307;51.136;14.942;2023-02-18T15:26:30;0.70;;;0.60;;
37445;SDS011;23307;51.136;14.942;2023-02-18T15:28:59;1.90;;;0.70;;
37445;SDS011;23307;51.136;14.942;2023-02-18T15:31:27;1.20;;;0.73;;
37445;SDS011;23307;51.136;14.942;2023-02-18T15:33:54;0.68;;;0.60;;
37445;SDS011;23307;51.136;14.942;2023-02-18T15:36:20;0.75;;;0.75;;
37445;SDS011;23307;51.136;14.942;2023-02-18T15:38:46;0.60;;;0.57;;
37445;SDS011;23307;51.136;14.942;2023-02-18T15:41:13;0.70;;;0.70;;
37445;SDS011;23307;51.136;14.942;2023-02-18T15:43:50;0.68;;;0.68;;
37445;SDS011;23307;51.136;14.942;2023-02-18T15:46:21;1.73;;;1.00;;
37445;SDS011;23307;51.136;14.942;2023-02-18T15:48:50;0.63;;;0.60;;
37445;SDS011;23307;51.136;14.942;2023-02-18T15:51:17;1.38;;;0.80;;
37445;SDS011;23307;51.136;14.942;2023-02-18T15:53:50;0.90;;;0.85;;
37445;SDS011;23307;51.136;14.942;2023-02-18T15:56:38;1.73;;;0.95;;
37445;SDS011;23307;51.136;14.942;2023-02-18T15:59:09;1.02;;;0.68;;
37445;SDS011;23307;51.136;14.942;2023-02-18T16:01:41;0.95;;;0.70;;
37445;SDS011;23307;51.136;14.942;2023-02-18T16:04:12;0.70;;;0.70;;
37445;SDS011;23307;51.136;14.942;2023-02-18T16:06:43;0.95;;;0.80;;
37445;SDS011;23307;51.136;14.942;2023-02-18T16:11:55;1.40;;;1.10;;
37445;SDS011;23307;51.136;14.942;2023-02-18T16:14:46;1.20;;;1.05;;
37445;SDS011;23307;51.136;14.942;2023-02-18T16:17:25;1.45;;;0.70;;
37445;SDS011;23307;51.136;14.942;2023-02-18T16:19:53;0.65;;;0.65;;
37445;SDS011;23307;51.136;14.942;2023-02-18T16:25:13;0.57;;;0.57;;
37445;SDS011;23307;51.136;14.942;2023-02-18T16:27:47;0.75;;;0.75;;
37445;SDS011;23307;51.136;14.942;2023-02-18T16:30:29;0.75;;;0.75;;
37445;SDS011;23307;51.136;14.942;2023-02-18T16:32:56;0.95;;;0.80;;
37445;SDS011;23307;51.136;14.942;2023-02-18T16:35:23;0.60;;;0.60;;
37445;SDS011;23307;51.136;14.942;2023-02-18T16:37:51;0.63;;;0.63;;
37445;SDS011;23307;51.136;14.942;2023-02-18T16:40:22;0.88;;;0.70;;
37445;SDS011;23307;51.136;14.942;2023-02-18T16:42:56;0.90;;;0.70;;